sensor_id;sensor_type;location;lat;lon;timestamp;pressure;altitude;pressure_sealevel;temperature;humidity
6144;BME280;3103;49.492;8.474;2022-11-11T00:00:31;101980.59;;;10.56;83.82
6144;BME280;3103;49.492;8.474;2022-11-11T00:03:17;101979.78;;;10.56;84.46
6144;BME280;3103;49.492;8.474;2022-11-11T00:06:12;101987.03;;;10.68;84.32
6144;BME280;3103;49.492;8.474;2022-11-11T00:08:58;101984.75;;;10.65;83.86
6144;BME280;3103;49.492;8.474;2022-11-11T00:11:43;101987.13;;;10.34;84.77
6144;BME280;3103;49.492;8.474;2022-11-11T00:14:29;101979.47;;;10.37;85.22
6144;BME280;3103;49.492;8.474;2022-11-11T00:17:14;101975.03;;;10.64;83.87
6144;BME280;3103;49.492;8.474;2022-11-11T00:20:32;101977.47;;;10.46;83.77
6144;BME280;3103;49.492;8.474;2022-11-11T00:23:36;101971.66;;;10.43;84.76
6144;BME280;3103;49.492;8.474;2022-11-11T00:26:41;101965.69;;;10.47;84.36
6144;BME280;3103;49.492;8.474;2022-11-11T00:29:27;101977.25;;;10.48;84.84
6144;BME280;3103;49.492;8.474;2022-11-11T00:32:12;101977.06;;;10.49;84.67
6144;BME280;3103;49.492;8.474;2022-11-11T00:35:15;101983.06;;;10.51;84.86
6144;BME280;3103;49.492;8.474;2022-11-11T00:38:20;101992.13;;;10.44;85.22
6144;BME280;3103;49.492;8.474;2022-11-11T00:41:24;102004.22;;;10.26;87.42
6144;BME280;3103;49.492;8.474;2022-11-11T00:44:11;102007.13;;;10.25;87.72
6144;BME280;3103;49.492;8.474;2022-11-11T00:46:57;102005.59;;;10.16;88.05
6144;BME280;3103;49.492;8.474;2022-11-11T00:50:03;102006.63;;;10.15;87.94
6144;BME280;3103;49.492;8.474;2022-11-11T00:53:10;102015.66;;;10.07;88.66
6144;BME280;3103;49.492;8.474;2022-11-11T00:55:56;102016.72;;;10.12;88.92
6144;BME280;3103;49.492;8.474;2022-11-11T00:58:44;102019.13;;;10.29;87.40
6144;BME280;3103;49.492;8.474;2022-11-11T01:01:31;102019.13;;;10.29;86.58
6144;BME280;3103;49.492;8.474;2022-11-11T01:04:17;102022.50;;;10.09;87.41
6144;BME280;3103;49.492;8.474;2022-11-11T01:07:02;102027.31;;;10.21;86.93
6144;BME280;3103;49.492;8.474;2022-11-11T01:09:48;102029.44;;;10.25;86.73
6144;BME280;3103;49.492;8.474;2022-11-11T01:12:33;102023.09;;;10.05;87.31
6144;BME280;3103;49.492;8.474;2022-11-11T01:15:18;102019.66;;;10.18;87.23
6144;BME280;3103;49.492;8.474;2022-11-11T01:18:04;102020.13;;;10.21;86.88
6144;BME280;3103;49.492;8.474;2022-11-11T01:21:04;102025.25;;;10.16;87.29
6144;BME280;3103;49.492;8.474;2022-11-11T01:23:52;102016.00;;;10.25;86.76
6144;BME280;3103;49.492;8.474;2022-11-11T01:26:37;102012.34;;;10.05;87.07
6144;BME280;3103;49.492;8.474;2022-11-11T01:29:23;102013.06;;;10.20;86.72
6144;BME280;3103;49.492;8.474;2022-11-11T01:32:11;102010.44;;;10.27;84.87
6144;BME280;3103;49.492;8.474;2022-11-11T01:34:56;102014.81;;;10.00;85.90
6144;BME280;3103;49.492;8.474;2022-11-11T01:37:42;102019.16;;;10.01;85.08
6144;BME280;3103;49.492;8.474;2022-11-11T01:40:27;102021.19;;;9.71;85.94
6144;BME280;3103;49.492;8.474;2022-11-11T01:43:19;102026.19;;;9.74;86.60
6144;BME280;3103;49.492;8.474;2022-11-11T01:46:16;102026.22;;;9.80;86.21
6144;BME280;3103;49.492;8.474;2022-11-11T01:49:24;102027.47;;;9.78;86.48
6144;BME280;3103;49.492;8.474;2022-11-11T01:52:18;102026.63;;;9.77;86.90
6144;BME280;3103;49.492;8.474;2022-11-11T01:55:18;102021.50;;;9.82;86.36
6144;BME280;3103;49.492;8.474;2022-11-11T01:58:09;102019.84;;;9.81;86.65
6144;BME280;3103;49.492;8.474;2022-11-11T02:00:58;102015.25;;;9.75;86.42
6144;BME280;3103;49.492;8.474;2022-11-11T02:03:45;102012.97;;;9.72;87.02
6144;BME280;3103;49.492;8.474;2022-11-11T02:06:58;102012.19;;;9.78;85.87
6144;BME280;3103;49.492;8.474;2022-11-11T02:09:46;102009.59;;;9.64;86.63
6144;BME280;3103;49.492;8.474;2022-11-11T02:12:32;102017.50;;;9.72;85.79
6144;BME280;3103;49.492;8.474;2022-11-11T02:15:57;102015.78;;;9.64;85.61
6144;BME280;3103;49.492;8.474;2022-11-11T02:18:43;102009.59;;;9.64;85.99
6144;BME280;3103;49.492;8.474;2022-11-11T02:21:32;102007.34;;;9.67;85.62
6144;BME280;3103;49.492;8.474;2022-11-11T02:24:21;102017.03;;;9.62;85.72
6144;BME280;3103;49.492;8.474;2022-11-11T02:27:09;102018.56;;;9.49;85.54
6144;BME280;3103;49.492;8.474;2022-11-11T02:29:58;102013.19;;;9.49;85.74
6144;BME280;3103;49.492;8.474;2022-11-11T02:32:48;102014.03;;;9.50;85.90
6144;BME280;3103;49.492;8.474;2022-11-11T02:35:44;102009.06;;;9.47;86.04
6144;BME280;3103;49.492;8.474;2022-11-11T02:38:29;102005.53;;;9.46;86.46
6144;BME280;3103;49.492;8.474;2022-11-11T02:41:15;102002.47;;;9.49;85.77
6144;BME280;3103;49.492;8.474;2022-11-11T02:44:37;102010.28;;;9.44;85.51
6144;BME280;3103;49.492;8.474;2022-11-11T02:47:23;102004.94;;;9.51;84.87
6144;BME280;3103;49.492;8.474;2022-11-11T02:50:09;102016.19;;;9.61;84.80
6144;BME280;3103;49.492;8.474;2022-11-11T02:52:54;102014.34;;;9.62;84.81
6144;BME280;3103;49.492;8.474;2022-11-11T02:55:40;102021.47;;;9.55;84.80
6144;BME280;3103;49.492;8.474;2022-11-11T02:58:25;102016.41;;;9.38;85.01
6144;BME280;3103;49.492;8.474;2022-11-11T03:01:10;102028.47;;;9.49;84.75
6144;BME280;3103;49.492;8.474;2022-11-11T03:03:56;102028.16;;;9.37;84.75
6144;BME280;3103;49.492;8.474;2022-11-11T03:06:42;102021.19;;;9.43;84.51
6144;BME280;3103;49.492;8.474;2022-11-11T03:09:27;102027.75;;;9.40;84.90
6144;BME280;3103;49.492;8.474;2022-11-11T03:12:13;102028.16;;;9.37;84.19
6144;BME280;3103;49.492;8.474;2022-11-11T03:14:59;102017.31;;;9.24;84.83
6144;BME280;3103;49.492;8.474;2022-11-11T03:17:44;102019.94;;;9.17;85.70
6144;BME280;3103;49.492;8.474;2022-11-11T03:20:30;102017.75;;;9.28;85.25
6144;BME280;3103;49.492;8.474;2022-11-11T03:23:34;102030.53;;;9.47;84.02
6144;BME280;3103;49.492;8.474;2022-11-11T03:26:19;102039.84;;;9.30;84.28
6144;BME280;3103;49.492;8.474;2022-11-11T03:29:05;102049.91;;;9.28;84.23
6144;BME280;3103;49.492;8.474;2022-11-11T03:31:50;102048.84;;;9.22;84.30
6144;BME280;3103;49.492;8.474;2022-11-11T03:34:37;102050.66;;;9.15;84.71
6144;BME280;3103;49.492;8.474;2022-11-11T03:37:22;102049.72;;;9.08;84.99
6144;BME280;3103;49.492;8.474;2022-11-11T03:40:27;102060.41;;;9.22;85.04
6144;BME280;3103;49.492;8.474;2022-11-11T03:43:14;102060.34;;;9.16;84.73
6144;BME280;3103;49.492;8.474;2022-11-11T03:46:01;102055.44;;;9.19;84.67
6144;BME280;3103;49.492;8.474;2022-11-11T03:48:46;102064.22;;;9.13;84.65
6144;BME280;3103;49.492;8.474;2022-11-11T03:51:31;102067.19;;;9.18;84.55
6144;BME280;3103;49.492;8.474;2022-11-11T03:54:17;102063.16;;;9.29;84.75
6144;BME280;3103;49.492;8.474;2022-11-11T03:57:02;102058.16;;;9.26;84.21
6144;BME280;3103;49.492;8.474;2022-11-11T04:00:07;102065.56;;;9.24;83.65
6144;BME280;3103;49.492;8.474;2022-11-11T04:03:12;102069.09;;;9.03;84.66
6144;BME280;3103;49.492;8.474;2022-11-11T04:06:17;102071.66;;;8.97;84.65
6144;BME280;3103;49.492;8.474;2022-11-11T04:09:21;102069.63;;;8.99;84.59
6144;BME280;3103;49.492;8.474;2022-11-11T04:12:25;102085.88;;;9.12;84.56
6144;BME280;3103;49.492;8.474;2022-11-11T04:15:12;102090.78;;;9.08;84.03
6144;BME280;3103;49.492;8.474;2022-11-11T04:18:16;102092.09;;;8.98;83.72
6144;BME280;3103;49.492;8.474;2022-11-11T04:21:02;102096.75;;;8.89;83.58
6144;BME280;3103;49.492;8.474;2022-11-11T04:24:07;102102.41;;;8.79;83.99
6144;BME280;3103;49.492;8.474;2022-11-11T04:27:13;102103.88;;;8.82;84.33
6144;BME280;3103;49.492;8.474;2022-11-11T04:29:59;102108.78;;;8.78;84.78
6144;BME280;3103;49.492;8.474;2022-11-11T04:32:44;102106.94;;;8.79;85.37
6144;BME280;3103;49.492;8.474;2022-11-11T04:35:31;102109.03;;;8.83;85.09
6144;BME280;3103;49.492;8.474;2022-11-11T04:38:17;102105.00;;;8.73;85.09
6144;BME280;3103;49.492;8.474;2022-11-11T04:41:21;102102.16;;;8.59;86.17
6144;BME280;3103;49.492;8.474;2022-11-11T04:44:12;102105.91;;;8.80;85.53
6144;BME280;3103;49.492;8.474;2022-11-11T04:47:16;102109.06;;;8.69;85.16
6144;BME280;3103;49.492;8.474;2022-11-11T04:50:01;102108.84;;;8.85;84.63
6144;BME280;3103;49.492;8.474;2022-11-11T04:52:52;102104.25;;;8.79;84.76
6144;BME280;3103;49.492;8.474;2022-11-11T04:55:38;102104.34;;;8.71;85.50
6144;BME280;3103;49.492;8.474;2022-11-11T04:58:42;102103.41;;;8.78;85.49
6144;BME280;3103;49.492;8.474;2022-11-11T05:01:28;102100.34;;;8.81;84.80
6144;BME280;3103;49.492;8.474;2022-11-11T05:04:32;102101.19;;;8.82;85.00
6144;BME280;3103;49.492;8.474;2022-11-11T05:07:17;102102.66;;;8.84;84.32
6144;BME280;3103;49.492;8.474;2022-11-11T05:10:21;102104.06;;;8.66;85.77
6144;BME280;3103;49.492;8.474;2022-11-11T05:13:06;102101.59;;;8.64;85.62
6144;BME280;3103;49.492;8.474;2022-11-11T05:16:18;102100.47;;;8.58;85.67
6144;BME280;3103;49.492;8.474;2022-11-11T05:19:23;102104.84;;;8.45;86.00
6144;BME280;3103;49.492;8.474;2022-11-11T05:22:42;102099.09;;;8.48;86.12
6144;BME280;3103;49.492;8.474;2022-11-11T05:25:28;102105.34;;;8.70;85.40
6144;BME280;3103;49.492;8.474;2022-11-11T05:28:15;102113.31;;;8.78;84.25
6144;BME280;3103;49.492;8.474;2022-11-11T05:31:01;102104.84;;;8.59;83.88
6144;BME280;3103;49.492;8.474;2022-11-11T05:33:46;102105.75;;;8.52;83.53
6144;BME280;3103;49.492;8.474;2022-11-11T05:36:31;102111.03;;;8.45;83.68
6144;BME280;3103;49.492;8.474;2022-11-11T05:39:17;102118.31;;;8.37;85.00
6144;BME280;3103;49.492;8.474;2022-11-11T05:42:03;102116.88;;;8.26;85.17
6144;BME280;3103;49.492;8.474;2022-11-11T05:44:49;102110.19;;;8.45;84.90
6144;BME280;3103;49.492;8.474;2022-11-11T05:47:35;102121.06;;;8.43;84.47
6144;BME280;3103;49.492;8.474;2022-11-11T05:50:20;102124.31;;;8.53;84.56
6144;BME280;3103;49.492;8.474;2022-11-11T05:53:06;102127.00;;;8.39;84.12
6144;BME280;3103;49.492;8.474;2022-11-11T05:55:51;102127.94;;;8.46;83.98
6144;BME280;3103;49.492;8.474;2022-11-11T05:58:36;102136.03;;;8.38;84.24
6144;BME280;3103;49.492;8.474;2022-11-11T06:01:22;102134.22;;;8.30;85.20
6144;BME280;3103;49.492;8.474;2022-11-11T06:04:08;102130.38;;;8.18;86.34
6144;BME280;3103;49.492;8.474;2022-11-11T06:07:01;102134.22;;;8.30;86.30
6144;BME280;3103;49.492;8.474;2022-11-11T06:09:46;102137.84;;;8.22;87.10
6144;BME280;3103;49.492;8.474;2022-11-11T06:12:32;102135.59;;;8.11;87.88
6144;BME280;3103;49.492;8.474;2022-11-11T06:15:38;102139.25;;;8.33;86.84
6144;BME280;3103;49.492;8.474;2022-11-11T06:18:25;102143.63;;;8.34;86.37
6144;BME280;3103;49.492;8.474;2022-11-11T06:21:15;102156.38;;;8.47;85.29
6144;BME280;3103;49.492;8.474;2022-11-11T06:24:00;102156.72;;;8.44;84.88
6144;BME280;3103;49.492;8.474;2022-11-11T06:26:45;102165.44;;;8.46;84.65
6144;BME280;3103;49.492;8.474;2022-11-11T06:29:31;102165.06;;;8.26;86.30
6144;BME280;3103;49.492;8.474;2022-11-11T06:32:16;102166.34;;;8.15;87.57
6144;BME280;3103;49.492;8.474;2022-11-11T06:35:02;102179.94;;;8.81;83.28
6144;BME280;3103;49.492;8.474;2022-11-11T06:37:48;102172.16;;;8.42;84.82
6144;BME280;3103;49.492;8.474;2022-11-11T06:40:33;102173.22;;;8.18;86.47
6144;BME280;3103;49.492;8.474;2022-11-11T06:43:19;102170.59;;;8.47;85.61
6144;BME280;3103;49.492;8.474;2022-11-11T06:46:04;102182.59;;;8.37;87.04
6144;BME280;3103;49.492;8.474;2022-11-11T06:48:49;102179.59;;;8.31;87.90
6144;BME280;3103;49.492;8.474;2022-11-11T06:51:36;102180.94;;;8.13;90.34
6144;BME280;3103;49.492;8.474;2022-11-11T06:54:21;102176.81;;;8.02;92.04
6144;BME280;3103;49.492;8.474;2022-11-11T06:57:07;102188.09;;;7.97;93.54
6144;BME280;3103;49.492;8.474;2022-11-11T06:59:52;102186.00;;;7.85;95.51
6144;BME280;3103;49.492;8.474;2022-11-11T07:02:38;102191.13;;;7.71;96.41
6144;BME280;3103;49.492;8.474;2022-11-11T07:05:23;102199.56;;;7.83;97.76
6144;BME280;3103;49.492;8.474;2022-11-11T07:08:12;102204.03;;;7.91;97.98
6144;BME280;3103;49.492;8.474;2022-11-11T07:10:58;102201.66;;;7.96;96.57
6144;BME280;3103;49.492;8.474;2022-11-11T07:13:55;102210.66;;;8.03;96.58
6144;BME280;3103;49.492;8.474;2022-11-11T07:16:41;102212.22;;;8.12;95.96
6144;BME280;3103;49.492;8.474;2022-11-11T07:19:26;102212.91;;;8.29;95.32
6144;BME280;3103;49.492;8.474;2022-11-11T07:22:12;102210.78;;;8.24;94.63
6144;BME280;3103;49.492;8.474;2022-11-11T07:24:57;102209.41;;;8.51;92.86
6144;BME280;3103;49.492;8.474;2022-11-11T07:27:43;102204.31;;;8.56;91.45
6144;BME280;3103;49.492;8.474;2022-11-11T07:30:28;102208.22;;;8.31;92.08
6144;BME280;3103;49.492;8.474;2022-11-11T07:33:14;102209.50;;;7.97;94.76
6144;BME280;3103;49.492;8.474;2022-11-11T07:36:06;102208.44;;;7.84;95.97
6144;BME280;3103;49.492;8.474;2022-11-11T07:38:51;102216.09;;;7.87;97.05
6144;BME280;3103;49.492;8.474;2022-11-11T07:41:36;102224.06;;;7.95;98.35
6144;BME280;3103;49.492;8.474;2022-11-11T07:44:21;102215.03;;;7.96;97.25
6144;BME280;3103;49.492;8.474;2022-11-11T07:47:07;102222.22;;;8.18;95.74
6144;BME280;3103;49.492;8.474;2022-11-11T07:49:52;102231.00;;;8.27;94.72
6144;BME280;3103;49.492;8.474;2022-11-11T07:52:38;102227.31;;;8.28;93.13
6144;BME280;3103;49.492;8.474;2022-11-11T07:55:23;102225.72;;;8.42;93.40
6144;BME280;3103;49.492;8.474;2022-11-11T07:58:08;102218.84;;;8.62;90.45
6144;BME280;3103;49.492;8.474;2022-11-11T08:00:54;102222.16;;;8.49;92.03
6144;BME280;3103;49.492;8.474;2022-11-11T08:03:39;102224.91;;;8.56;92.02
6144;BME280;3103;49.492;8.474;2022-11-11T08:06:34;102231.59;;;8.60;91.30
6144;BME280;3103;49.492;8.474;2022-11-11T08:09:19;102230.28;;;8.56;92.32
6144;BME280;3103;49.492;8.474;2022-11-11T08:12:04;102224.09;;;8.70;91.78
6144;BME280;3103;49.492;8.474;2022-11-11T08:15:09;102229.63;;;8.69;91.78
6144;BME280;3103;49.492;8.474;2022-11-11T08:17:54;102222.50;;;8.46;92.84
6144;BME280;3103;49.492;8.474;2022-11-11T08:20:39;102221.13;;;8.27;94.78
6144;BME280;3103;49.492;8.474;2022-11-11T08:23:30;102213.84;;;8.21;96.44
6144;BME280;3103;49.492;8.474;2022-11-11T08:26:39;102214.72;;;8.37;95.82
6144;BME280;3103;49.492;8.474;2022-11-11T08:29:24;102218.41;;;8.36;95.70
6144;BME280;3103;49.492;8.474;2022-11-11T08:32:09;102209.47;;;8.58;93.30
6144;BME280;3103;49.492;8.474;2022-11-11T08:34:55;102213.06;;;8.36;93.20
6144;BME280;3103;49.492;8.474;2022-11-11T08:37:41;102202.34;;;8.36;92.50
6144;BME280;3103;49.492;8.474;2022-11-11T08:40:26;102200.69;;;8.12;94.80
6144;BME280;3103;49.492;8.474;2022-11-11T08:43:11;102204.19;;;8.12;95.94
6144;BME280;3103;49.492;8.474;2022-11-11T08:45:58;102211.75;;;8.09;96.25
6144;BME280;3103;49.492;8.474;2022-11-11T08:48:44;102212.34;;;8.19;96.83
6144;BME280;3103;49.492;8.474;2022-11-11T08:51:30;102208.31;;;8.00;97.13
6144;BME280;3103;49.492;8.474;2022-11-11T08:54:28;102213.19;;;7.96;98.10
6144;BME280;3103;49.492;8.474;2022-11-11T08:57:13;102218.44;;;7.90;99.12
6144;BME280;3103;49.492;8.474;2022-11-11T08:59:58;102222.16;;;7.81;100.00
6144;BME280;3103;49.492;8.474;2022-11-11T09:02:45;102226.53;;;8.04;100.00
6144;BME280;3103;49.492;8.474;2022-11-11T09:05:30;102232.16;;;8.32;100.00
6144;BME280;3103;49.492;8.474;2022-11-11T09:08:16;102240.94;;;8.79;97.08
6144;BME280;3103;49.492;8.474;2022-11-11T09:11:01;102236.03;;;8.68;95.01
6144;BME280;3103;49.492;8.474;2022-11-11T09:13:47;102239.69;;;8.52;95.04
6144;BME280;3103;49.492;8.474;2022-11-11T09:16:32;102240.59;;;8.44;95.77
6144;BME280;3103;49.492;8.474;2022-11-11T09:19:18;102239.69;;;8.52;96.03
6144;BME280;3103;49.492;8.474;2022-11-11T09:22:03;102238.41;;;8.48;95.67
6144;BME280;3103;49.492;8.474;2022-11-11T09:24:49;102238.25;;;8.64;95.09
6144;BME280;3103;49.492;8.474;2022-11-11T09:27:38;102241.50;;;8.89;93.78
6144;BME280;3103;49.492;8.474;2022-11-11T09:30:25;102255.09;;;9.02;92.75
6144;BME280;3103;49.492;8.474;2022-11-11T09:33:11;102249.63;;;8.96;92.49
6144;BME280;3103;49.492;8.474;2022-11-11T09:35:59;102247.22;;;8.86;92.40
6144;BME280;3103;49.492;8.474;2022-11-11T09:38:44;102262.13;;;8.88;92.50
6144;BME280;3103;49.492;8.474;2022-11-11T09:45:22;102260.63;;;8.86;92.34
6144;BME280;3103;49.492;8.474;2022-11-11T09:48:43;102267.19;;;9.13;91.12
6144;BME280;3103;49.492;8.474;2022-11-11T09:52:00;102267.44;;;9.47;89.43
6144;BME280;3103;49.492;8.474;2022-11-11T09:54:49;102266.84;;;9.31;90.05
6144;BME280;3103;49.492;8.474;2022-11-11T09:57:39;102262.38;;;9.38;90.35
6144;BME280;3103;49.492;8.474;2022-11-11T10:00:30;102257.16;;;9.51;88.94
6144;BME280;3103;49.492;8.474;2022-11-11T10:03:19;102254.59;;;9.58;88.90
6144;BME280;3103;49.492;8.474;2022-11-11T10:06:09;102251.91;;;9.43;88.99
6144;BME280;3103;49.492;8.474;2022-11-11T10:09:12;102250.78;;;9.52;89.37
6144;BME280;3103;49.492;8.474;2022-11-11T10:12:10;102249.91;;;9.30;90.39
6144;BME280;3103;49.492;8.474;2022-11-11T10:14:59;102244.03;;;9.41;90.79
6144;BME280;3103;49.492;8.474;2022-11-11T10:18:10;102241.94;;;9.73;87.62
6144;BME280;3103;49.492;8.474;2022-11-11T10:21:04;102235.50;;;9.52;90.07
6144;BME280;3103;49.492;8.474;2022-11-11T10:23:54;102230.44;;;9.58;90.60
6144;BME280;3103;49.492;8.474;2022-11-11T10:26:44;102227.22;;;9.69;90.31
6144;BME280;3103;49.492;8.474;2022-11-11T10:29:38;102226.69;;;9.73;89.86
6144;BME280;3103;49.492;8.474;2022-11-11T10:32:32;102216.91;;;9.87;87.21
6144;BME280;3103;49.492;8.474;2022-11-11T10:35:21;102217.06;;;9.64;89.34
6144;BME280;3103;49.492;8.474;2022-11-11T10:41:13;102215.84;;;9.45;91.93
6144;BME280;3103;49.492;8.474;2022-11-11T10:44:00;102209.16;;;9.41;92.09
6144;BME280;3103;49.492;8.474;2022-11-11T10:47:01;102200.38;;;9.47;91.84
6144;BME280;3103;49.492;8.474;2022-11-11T10:50:03;102214.19;;;9.66;91.72
6144;BME280;3103;49.492;8.474;2022-11-11T10:56:05;102208.88;;;9.51;90.58
6144;BME280;3103;49.492;8.474;2022-11-11T10:59:15;102202.13;;;9.40;92.96
6144;BME280;3103;49.492;8.474;2022-11-11T11:02:22;102192.06;;;9.28;93.23
6144;BME280;3103;49.492;8.474;2022-11-11T11:05:21;102189.13;;;9.22;94.94
6144;BME280;3103;49.492;8.474;2022-11-11T11:08:13;102184.22;;;9.26;95.13
6144;BME280;3103;49.492;8.474;2022-11-11T11:11:12;102189.34;;;9.21;95.38
6144;BME280;3103;49.492;8.474;2022-11-11T11:14:05;102184.81;;;9.07;96.35
6144;BME280;3103;49.492;8.474;2022-11-11T11:16:52;102193.66;;;9.22;97.54
6144;BME280;3103;49.492;8.474;2022-11-11T11:19:40;102192.44;;;9.39;93.92
6144;BME280;3103;49.492;8.474;2022-11-11T11:22:47;102193.88;;;9.06;95.23
6144;BME280;3103;49.492;8.474;2022-11-11T11:25:33;102190.91;;;9.01;96.41
6144;BME280;3103;49.492;8.474;2022-11-11T11:28:19;102182.44;;;8.82;97.67
6144;BME280;3103;49.492;8.474;2022-11-11T11:31:05;102195.28;;;9.02;99.10
6144;BME280;3103;49.492;8.474;2022-11-11T11:33:53;102198.13;;;9.15;97.36
6144;BME280;3103;49.492;8.474;2022-11-11T11:36:40;102193.06;;;8.90;97.35
6144;BME280;3103;49.492;8.474;2022-11-11T11:39:37;102190.47;;;8.82;98.90
6144;BME280;3103;49.492;8.474;2022-11-11T11:42:37;102191.09;;;9.14;98.10
6144;BME280;3103;49.492;8.474;2022-11-11T11:45:28;102195.94;;;9.04;97.20
6144;BME280;3103;49.492;8.474;2022-11-11T11:48:26;102180.66;;;9.19;98.69
6144;BME280;3103;49.492;8.474;2022-11-11T12:00:28;102179.69;;;9.63;93.52
6144;BME280;3103;49.492;8.474;2022-11-11T12:06:42;102170.66;;;9.70;92.92
6144;BME280;3103;49.492;8.474;2022-11-11T12:09:40;102172.91;;;9.67;92.50
6144;BME280;3103;49.492;8.474;2022-11-11T12:15:42;102185.59;;;9.73;93.52
6144;BME280;3103;49.492;8.474;2022-11-11T12:28:38;102197.28;;;9.87;93.79
6144;BME280;3103;49.492;8.474;2022-11-11T12:43:28;102198.34;;;9.71;91.85
6144;BME280;3103;49.492;8.474;2022-11-11T12:46:45;102195.94;;;9.76;92.13
6144;BME280;3103;49.492;8.474;2022-11-11T12:49:52;102197.41;;;9.78;93.62
6144;BME280;3103;49.492;8.474;2022-11-11T12:53:04;102194.06;;;9.76;93.55
6144;BME280;3103;49.492;8.474;2022-11-11T12:59:19;102207.06;;;10.16;90.69
6144;BME280;3103;49.492;8.474;2022-11-11T13:02:36;102193.56;;;9.88;92.77
6144;BME280;3103;49.492;8.474;2022-11-11T13:05:28;102199.75;;;10.31;89.95
6144;BME280;3103;49.492;8.474;2022-11-11T13:14:30;102195.78;;;10.05;90.98
6144;BME280;3103;49.492;8.474;2022-11-11T13:17:21;102193.44;;;9.74;92.39
6144;BME280;3103;49.492;8.474;2022-11-11T13:20:46;102198.22;;;9.58;93.51
6144;BME280;3103;49.492;8.474;2022-11-11T13:23:34;102202.88;;;9.49;95.08
6144;BME280;3103;49.492;8.474;2022-11-11T13:26:27;102197.97;;;9.95;92.66
6144;BME280;3103;49.492;8.474;2022-11-11T13:32:30;102185.78;;;9.71;94.34
6144;BME280;3103;49.492;8.474;2022-11-11T13:35:28;102192.53;;;9.89;94.09
6144;BME280;3103;49.492;8.474;2022-11-11T13:38:29;102185.97;;;9.91;93.58
6144;BME280;3103;49.492;8.474;2022-11-11T13:41:34;102185.25;;;9.82;93.90
6144;BME280;3103;49.492;8.474;2022-11-11T13:44:37;102178.66;;;9.64;95.11
6144;BME280;3103;49.492;8.474;2022-11-11T13:47:34;102178.91;;;9.69;96.06
6144;BME280;3103;49.492;8.474;2022-11-11T13:50:33;102182.06;;;9.72;97.13
6144;BME280;3103;49.492;8.474;2022-11-11T13:53:39;102181.09;;;9.80;97.12
6144;BME280;3103;49.492;8.474;2022-11-11T13:56:41;102182.00;;;9.87;97.15
6144;BME280;3103;49.492;8.474;2022-11-11T13:59:57;102189.91;;;10.17;93.43
6144;BME280;3103;49.492;8.474;2022-11-11T14:02:43;102187.63;;;9.92;93.97
6144;BME280;3103;49.492;8.474;2022-11-11T14:05:29;102182.25;;;9.92;95.25
6144;BME280;3103;49.492;8.474;2022-11-11T14:11:33;102191.13;;;9.93;94.35
6144;BME280;3103;49.492;8.474;2022-11-11T14:17:20;102187.09;;;9.82;93.74
6144;BME280;3103;49.492;8.474;2022-11-11T14:20:45;102184.81;;;9.58;94.39
6144;BME280;3103;49.492;8.474;2022-11-11T14:23:35;102178.41;;;9.59;95.41
6144;BME280;3103;49.492;8.474;2022-11-11T14:26:26;102179.59;;;9.56;95.70
6144;BME280;3103;49.492;8.474;2022-11-11T14:29:18;102175.00;;;9.50;96.49
6144;BME280;3103;49.492;8.474;2022-11-11T14:47:18;102185.88;;;9.63;98.35
6144;BME280;3103;49.492;8.474;2022-11-11T14:53:30;102190.34;;;9.99;96.29
6144;BME280;3103;49.492;8.474;2022-11-11T14:56:20;102190.41;;;9.84;95.03
6144;BME280;3103;49.492;8.474;2022-11-11T14:59:07;102185.53;;;9.88;95.72
6144;BME280;3103;49.492;8.474;2022-11-11T15:01:58;102179.56;;;9.92;95.60
6144;BME280;3103;49.492;8.474;2022-11-11T15:04:44;102175.47;;;9.75;95.50
6144;BME280;3103;49.492;8.474;2022-11-11T15:11:03;102182.31;;;9.77;96.94
6144;BME280;3103;49.492;8.474;2022-11-11T15:26:42;102186.13;;;9.68;96.51
6144;BME280;3103;49.492;8.474;2022-11-11T15:29:49;102180.91;;;9.60;96.91
6144;BME280;3103;49.492;8.474;2022-11-11T15:36:05;102183.53;;;9.75;97.05
6144;BME280;3103;49.492;8.474;2022-11-11T15:38:57;102176.38;;;9.61;97.53
6144;BME280;3103;49.492;8.474;2022-11-11T15:41:47;102171.19;;;9.80;97.22
6144;BME280;3103;49.492;8.474;2022-11-11T15:44:34;102180.13;;;9.45;97.95
6144;BME280;3103;49.492;8.474;2022-11-11T15:47:19;102172.13;;;9.51;98.61
6144;BME280;3103;49.492;8.474;2022-11-11T15:53:11;102174.19;;;9.92;96.60
6144;BME280;3103;49.492;8.474;2022-11-11T15:55:57;102178.03;;;10.04;95.58
6144;BME280;3103;49.492;8.474;2022-11-11T15:58:44;102169.00;;;9.69;96.83
6144;BME280;3103;49.492;8.474;2022-11-11T16:01:30;102167.00;;;9.71;97.38
6144;BME280;3103;49.492;8.474;2022-11-11T16:04:21;102172.00;;;9.81;97.43
6144;BME280;3103;49.492;8.474;2022-11-11T16:07:33;102167.03;;;9.78;97.21
6144;BME280;3103;49.492;8.474;2022-11-11T16:10:28;102173.00;;;9.73;97.70
6144;BME280;3103;49.492;8.474;2022-11-11T16:13:19;102182.13;;;10.00;96.06
6144;BME280;3103;49.492;8.474;2022-11-11T16:16:10;102188.84;;;9.90;96.47
6144;BME280;3103;49.492;8.474;2022-11-11T16:21:53;102182.91;;;9.73;97.33
6144;BME280;3103;49.492;8.474;2022-11-11T16:24:43;102187.09;;;9.82;96.97
6144;BME280;3103;49.492;8.474;2022-11-11T16:27:32;102194.97;;;9.83;96.02
6144;BME280;3103;49.492;8.474;2022-11-11T16:30:33;102193.00;;;9.92;95.69
6144;BME280;3103;49.492;8.474;2022-11-11T16:33:31;102195.28;;;9.95;95.31
6144;BME280;3103;49.492;8.474;2022-11-11T16:36:18;102184.38;;;9.75;96.24
6144;BME280;3103;49.492;8.474;2022-11-11T16:39:26;102183.72;;;9.73;97.05
6144;BME280;3103;49.492;8.474;2022-11-11T16:45:22;102187.50;;;9.79;97.45
6144;BME280;3103;49.492;8.474;2022-11-11T16:51:24;102179.19;;;9.74;97.78
6144;BME280;3103;49.492;8.474;2022-11-11T16:54:25;102179.38;;;9.72;97.71
6144;BME280;3103;49.492;8.474;2022-11-11T16:57:16;102180.66;;;9.76;98.13
6144;BME280;3103;49.492;8.474;2022-11-11T17:00:04;102179.94;;;9.68;98.38
6144;BME280;3103;49.492;8.474;2022-11-11T17:03:18;102176.22;;;9.69;98.03
6144;BME280;3103;49.492;8.474;2022-11-11T17:06:07;102176.75;;;10.22;94.43
6144;BME280;3103;49.492;8.474;2022-11-11T17:08:53;102174.00;;;10.15;93.16
6144;BME280;3103;49.492;8.474;2022-11-11T17:14:28;102169.16;;;9.61;97.36
6144;BME280;3103;49.492;8.474;2022-11-11T17:17:14;102163.44;;;9.49;99.12
6144;BME280;3103;49.492;8.474;2022-11-11T17:20:02;102158.28;;;9.69;97.63
6144;BME280;3103;49.492;8.474;2022-11-11T17:22:52;102166.22;;;9.20;100.00
6144;BME280;3103;49.492;8.474;2022-11-11T17:25:39;102164.75;;;9.17;100.00
6144;BME280;3103;49.492;8.474;2022-11-11T17:28:25;102173.97;;;9.30;100.00
6144;BME280;3103;49.492;8.474;2022-11-11T17:31:12;102165.31;;;9.49;100.00